Time;durP1;ratioP1;P1;durP2;ratioP2;P2;SDS_P1;SDS_P2;PMS_P1;PMS_P2;Temp;Humidity;BMP_temperature;BMP_pressure;BME280_temperature;BME280_humidity;BME280_pressure;Samples;Min_cycle;Max_cycle;Signal;HPM_P1;HPM_P2
2021/08/23 00:02:32;;;;;;;14.50;7.40;;;;;;;20.69;62.60;98986.90;234225;1198;138351;-63
2021/08/23 00:07:35;;;;;;;7.60;6.60;;;;;;;20.63;62.79;98976.02;234118;1199;138958;-63
2021/08/23 00:12:39;;;;;;;9.80;7.10;;;;;;;20.58;62.77;98954.94;234105;1198;139698;-62
2021/08/23 00:17:43;;;;;;;11.30;7.60;;;;;;;20.55;63.02;98960.09;234056;1200;138603;-62
2021/08/23 00:22:51;;;;;;;8.30;7.20;;;;;;;20.52;63.20;98961.77;234058;1198;138768;-62
2021/08/23 00:27:54;;;;;;;11.50;8.40;;;;;;;20.52;63.42;98953.35;234171;1198;138291;-62
2021/08/23 00:32:58;;;;;;;12.40;6.90;;;;;;;20.50;63.60;98953.55;234224;1198;138957;-63
2021/08/23 00:38:02;;;;;;;10.50;6.30;;;;;;;20.47;63.56;98948.63;234310;1198;139692;-63
2021/08/23 00:43:06;;;;;;;10.40;7.50;;;;;;;20.41;63.62;98949.45;234288;1198;139107;-63
2021/08/23 00:48:09;;;;;;;11.80;7.60;;;;;;;20.34;63.79;98948.02;234041;1201;139772;-62
2021/08/23 00:53:12;;;;;;;10.70;8.10;;;;;;;20.29;64.02;98948.73;234034;1196;141467;-62
2021/08/23 00:58:18;;;;;;;9.00;6.70;;;;;;;20.24;64.24;98954.09;233998;1198;139542;-62
2021/08/23 01:03:39;;;;;;;8.60;6.80;;;;;;;20.22;64.57;98951.38;234133;1198;139222;-62
2021/08/23 01:08:45;;;;;;;13.40;7.90;;;;;;;20.26;64.67;98965.77;234082;1198;138607;-63
2021/08/23 01:13:49;;;;;;;9.60;7.60;;;;;;;20.34;64.97;98967.16;234057;1198;138371;-63
2021/08/23 01:18:53;;;;;;;9.20;7.60;;;;;;;20.38;65.07;98965.48;234075;1198;138671;-62
2021/08/23 01:23:59;;;;;;;9.50;7.60;;;;;;;20.40;64.99;98960.04;234027;1198;138886;-63
2021/08/23 01:29:11;;;;;;;10.40;7.50;;;;;;;20.38;65.10;98955.40;234108;1198;138862;-62
2021/08/23 01:34:15;;;;;;;10.10;8.50;;;;;;;20.39;65.18;98949.13;234133;1198;139672;-62
2021/08/23 01:39:20;;;;;;;12.20;8.40;;;;;;;20.39;65.33;98960.15;234073;1198;138834;-63
2021/08/23 01:44:24;;;;;;;10.00;8.90;;;;;;;20.36;65.33;98968.06;234194;1199;138546;-63
2021/08/23 01:49:27;;;;;;;11.80;8.40;;;;;;;20.34;65.60;98961.17;234046;1200;139167;-63
2021/08/23 01:54:30;;;;;;;8.40;7.30;;;;;;;20.33;65.66;98955.13;234072;1198;139519;-63
2021/08/23 01:59:33;;;;;;;9.20;8.30;;;;;;;20.33;65.85;98945.41;234102;1198;138705;-63
2021/08/23 02:04:36;;;;;;;12.90;9.80;;;;;;;20.34;66.09;98931.77;234030;1199;138337;-63
2021/08/23 02:09:40;;;;;;;12.00;10.00;;;;;;;20.35;66.05;98925.41;233908;1200;139050;-63
2021/08/23 02:14:43;;;;;;;11.10;8.50;;;;;;;20.31;66.10;98918.40;234168;1198;139120;-63
2021/08/23 02:19:46;;;;;;;12.30;9.00;;;;;;;20.30;66.25;98911.70;234028;1198;139068;-62
2021/08/23 02:24:49;;;;;;;12.90;9.60;;;;;;;20.28;66.34;98906.06;233922;1198;139631;-63
2021/08/23 02:29:52;;;;;;;12.70;9.90;;;;;;;20.29;66.43;98893.45;234142;1198;138669;-62
2021/08/23 02:34:55;;;;;;;13.30;9.50;;;;;;;20.28;66.53;98889.34;234068;1198;138733;-62
2021/08/23 02:39:58;;;;;;;10.40;8.60;;;;;;;20.29;66.76;98886.94;234141;1198;138920;-62
2021/08/23 02:45:01;;;;;;;13.90;9.80;;;;;;;20.30;66.80;98884.13;234281;1198;139972;-63
2021/08/23 02:50:08;;;;;;;12.70;10.80;;;;;;;20.32;66.87;98888.16;234120;1198;139266;-62
2021/08/23 02:55:11;;;;;;;13.40;10.50;;;;;;;20.32;66.98;98879.32;234036;1198;139143;-62
2021/08/23 03:00:15;;;;;;;13.50;9.80;;;;;;;20.28;66.89;98875.84;234021;1201;140588;-62
2021/08/23 03:05:18;;;;;;;12.80;8.70;;;;;;;20.24;66.93;98867.08;234023;1199;139269;-62
2021/08/23 03:10:21;;;;;;;12.90;10.40;;;;;;;20.25;67.15;98874.52;234030;1199;139881;-62
2021/08/23 03:15:24;;;;;;;13.20;10.00;;;;;;;20.26;67.08;98872.66;234066;1198;142432;-63
2021/08/23 03:20:27;;;;;;;12.40;9.90;;;;;;;20.22;67.15;98875.52;234211;1198;138559;-62
2021/08/23 03:25:30;;;;;;;11.40;8.90;;;;;;;20.19;67.24;98874.31;234161;1198;138480;-63
2021/08/23 03:30:33;;;;;;;13.40;8.90;;;;;;;20.17;67.39;98874.70;234124;1198;139590;-63
2021/08/23 03:35:36;;;;;;;11.90;9.60;;;;;;;20.19;67.45;98872.99;234088;1198;138944;-63
2021/08/23 03:40:40;;;;;;;11.60;10.00;;;;;;;20.20;67.51;98874.88;234045;1199;138723;-62
2021/08/23 03:45:43;;;;;;;11.90;9.50;;;;;;;20.18;67.55;98877.05;234015;1200;139468;-62
2021/08/23 03:50:46;;;;;;;11.30;8.50;;;;;;;20.19;67.58;98875.02;234114;1198;139001;-63
2021/08/23 03:55:49;;;;;;;12.60;9.10;;;;;;;20.16;67.64;98875.30;233995;1199;138891;-63
2021/08/23 04:00:53;;;;;;;17.00;10.20;;;;;;;20.15;67.54;98883.92;234028;1195;139869;-62
2021/08/23 04:05:56;;;;;;;16.80;10.70;;;;;;;20.14;67.87;98888.10;234115;1198;138749;-62
2021/08/23 04:10:59;;;;;;;12.40;9.90;;;;;;;20.14;67.84;98887.79;233938;1195;138356;-62
2021/08/23 04:16:03;;;;;;;12.40;10.10;;;;;;;20.11;67.77;98884.30;234124;1198;140063;-62
2021/08/23 04:21:06;;;;;;;14.20;10.60;;;;;;;20.09;67.95;98886.95;234093;1199;139464;-61
2021/08/23 04:26:09;;;;;;;12.70;10.50;;;;;;;20.10;68.08;98886.22;234119;1198;139758;-62
2021/08/23 04:31:12;;;;;;;11.20;9.00;;;;;;;20.13;68.27;98889.30;234081;1198;139187;-62
2021/08/23 04:36:15;;;;;;;12.70;9.20;;;;;;;20.15;68.15;98897.45;234073;1198;139112;-62
2021/08/23 04:41:18;;;;;;;12.50;9.90;;;;;;;20.14;68.11;98897.48;234129;1198;138967;-63
2021/08/23 04:46:23;;;;;;;13.40;10.10;;;;;;;20.15;68.31;98906.45;234027;1199;138349;-62
2021/08/23 04:51:26;;;;;;;12.80;10.60;;;;;;;20.12;68.33;98916.27;234032;1199;140768;-62
2021/08/23 04:56:29;;;;;;;12.00;10.40;;;;;;;20.07;68.13;98919.97;234192;1198;139092;-62
2021/08/23 05:01:32;;;;;;;13.70;10.90;;;;;;;20.02;68.24;98923.02;233943;1199;139774;-62
2021/08/23 05:06:35;;;;;;;14.00;12.10;;;;;;;20.01;68.41;98934.66;234101;1198;142652;-63
2021/08/23 05:11:38;;;;;;;20.20;12.60;;;;;;;20.03;68.72;98943.66;234108;1198;141088;-61
2021/08/23 05:16:41;;;;;;;16.00;11.90;;;;;;;20.04;68.84;98964.96;233940;1198;139335;-61
2021/08/23 05:21:44;;;;;;;16.40;12.10;;;;;;;20.08;69.05;98963.73;234028;1198;140032;-62
2021/08/23 05:26:47;;;;;;;17.00;14.00;;;;;;;20.08;68.98;98961.80;234105;1198;139454;-64
2021/08/23 05:31:51;;;;;;;17.70;13.50;;;;;;;20.06;68.96;98970.83;234041;1198;138716;-62
2021/08/23 05:36:54;;;;;;;16.80;12.20;;;;;;;20.06;69.06;98976.48;234037;1198;139105;-63
2021/08/23 05:41:57;;;;;;;12.80;10.80;;;;;;;20.08;69.33;98982.77;234117;1198;139775;-61
2021/08/23 05:47:01;;;;;;;13.60;9.10;;;;;;;20.12;69.45;98985.95;234226;1197;139369;-63
2021/08/23 05:52:04;;;;;;;10.80;8.80;;;;;;;20.12;69.36;98991.02;234168;1198;138818;-61
2021/08/23 05:57:07;;;;;;;9.70;6.90;;;;;;;20.02;69.18;98989.44;234282;1198;138435;-62
2021/08/23 06:02:10;;;;;;;9.50;6.00;;;;;;;19.94;69.31;98998.95;234122;1198;139703;-61
2021/08/23 06:07:14;;;;;;;9.90;6.00;;;;;;;19.88;69.38;98995.80;234073;1199;139613;-62
2021/08/23 06:12:17;;;;;;;6.60;4.80;;;;;;;19.81;69.49;99001.48;234117;1198;138649;-62
2021/08/23 06:17:20;;;;;;;6.90;4.70;;;;;;;19.74;69.57;99003.16;233982;1198;139406;-62
2021/08/23 06:22:24;;;;;;;5.60;4.20;;;;;;;19.70;69.67;99003.94;234108;1198;139281;-62
2021/08/23 06:27:27;;;;;;;5.10;4.10;;;;;;;19.65;69.67;99011.48;234141;1198;141452;-63
2021/08/23 06:32:30;;;;;;;7.10;4.50;;;;;;;19.61;69.85;99007.46;234218;1198;138289;-62
2021/08/23 06:37:36;;;;;;;5.20;3.90;;;;;;;19.55;69.78;99010.45;233990;1199;139385;-63
2021/08/23 06:42:39;;;;;;;;;;;;;;;19.49;70.00;99008.89;233991;1199;140142;-63
2021/08/23 06:47:42;;;;;;;5.00;3.60;;;;;;;19.43;70.09;99010.23;234086;1199;125750;-61
2021/08/23 06:52:45;;;;;;;5.00;3.90;;;;;;;19.43;70.16;99011.27;234081;1198;138945;-61
2021/08/23 06:57:48;;;;;;;4.70;3.60;;;;;;;19.42;70.11;99011.41;234177;1198;139480;-62
2021/08/23 07:02:53;;;;;;;4.00;2.90;;;;;;;19.34;70.10;99008.86;234209;1198;138214;-64
2021/08/23 07:07:56;;;;;;;3.90;2.60;;;;;;;19.32;70.05;99004.63;233977;1198;139367;-62
2021/08/23 07:13:00;;;;;;;4.00;3.00;;;;;;;19.29;69.89;98996.98;234183;1198;139798;-62
2021/08/23 07:18:03;;;;;;;4.70;3.10;;;;;;;19.22;69.74;98996.96;234086;1198;138666;-62
2021/08/23 07:23:06;;;;;;;4.00;2.80;;;;;;;19.16;69.93;98996.98;234055;1198;138752;-62
2021/08/23 07:28:09;;;;;;;3.90;2.70;;;;;;;19.15;69.90;98998.73;234044;1198;139578;-62
2021/08/23 07:33:12;;;;;;;4.50;3.40;;;;;;;19.15;69.98;98995.48;234236;1198;139063;-61
2021/08/23 07:38:16;;;;;;;4.10;3.30;;;;;;;19.17;70.09;98996.58;234090;1198;139322;-61
2021/08/23 07:43:19;;;;;;;5.40;3.30;;;;;;;19.20;70.18;98993.60;234075;1198;139450;-61
2021/08/23 07:48:22;;;;;;;6.70;3.40;;;;;;;19.20;70.25;98999.53;233868;1199;139343;-61
2021/08/23 07:53:25;;;;;;;4.10;3.20;;;;;;;19.22;70.32;98994.59;234036;1198;139345;-61
2021/08/23 07:58:28;;;;;;;4.20;3.40;;;;;;;19.25;70.39;99002.42;234106;1198;139475;-61
2021/08/23 08:03:31;;;;;;;4.70;3.40;;;;;;;19.23;70.36;98998.29;234018;1199;140109;-61
2021/08/23 08:08:34;;;;;;;5.10;3.30;;;;;;;19.22;70.48;98995.67;234153;1199;139217;-62
2021/08/23 08:13:37;;;;;;;4.80;3.30;;;;;;;19.29;70.50;98998.05;234019;1199;139033;-59
2021/08/23 08:18:40;;;;;;;5.20;3.10;;;;;;;19.36;70.61;98996.78;233718;1200;139751;-62
2021/08/23 08:23:43;;;;;;;4.10;3.30;;;;;;;19.37;70.42;99006.26;234080;1198;139223;-62
2021/08/23 08:28:46;;;;;;;4.80;3.70;;;;;;;19.32;70.36;99006.80;234146;1198;138810;-60
2021/08/23 08:33:49;;;;;;;5.20;3.00;;;;;;;19.31;70.32;99009.07;233897;1196;139086;-61
2021/08/23 08:38:52;;;;;;;6.70;3.50;;;;;;;19.31;70.41;99008.89;234207;1195;138561;-61
2021/08/23 08:43:56;;;;;;;4.90;3.80;;;;;;;19.28;70.38;99013.08;234081;1198;138604;-60
2021/08/23 08:49:00;;;;;;;5.00;3.40;;;;;;;19.26;70.49;99011.49;234136;1198;138800;-61
2021/08/23 08:54:04;;;;;;;4.00;3.30;;;;;;;19.30;70.54;99008.06;234067;1196;139837;-60
2021/08/23 08:59:07;;;;;;;6.30;3.70;;;;;;;19.34;70.78;99011.05;234022;1198;139520;-59
2021/08/23 09:04:10;;;;;;;5.40;3.70;;;;;;;19.36;70.61;99014.94;234053;1198;138761;-61
2021/08/23 09:09:34;;;;;;;5.90;4.00;;;;;;;19.40;70.75;99015.55;234099;1199;139602;-62
2021/08/23 09:14:51;;;;;;;4.10;3.50;;;;;;;19.43;70.74;99016.48;234135;1198;139556;-59
2021/08/23 09:20:03;;;;;;;4.70;3.30;;;;;;;19.45;70.64;99018.23;234051;1198;138999;-59
2021/08/23 09:25:11;;;;;;;6.10;4.50;;;;;;;19.50;70.71;99019.54;234112;1198;139414;-61
2021/08/23 09:30:15;;;;;;;6.00;4.40;;;;;;;19.55;70.76;99021.55;234142;1198;138506;-60
2021/08/23 09:35:33;;;;;;;6.60;3.90;;;;;;;19.58;70.76;99023.02;234066;1198;138206;-60
2021/08/23 09:40:37;;;;;;;4.90;3.40;;;;;;;19.59;70.75;99023.54;233986;1198;141875;-58
2021/08/23 09:45:44;;;;;;;5.70;4.10;;;;;;;19.59;70.75;99013.45;234065;1198;140724;-59
2021/08/23 09:50:49;;;;;;;7.10;4.50;;;;;;;19.61;70.72;99022.59;234149;1199;138432;-61
2021/08/23 09:55:55;;;;;;;8.80;4.50;;;;;;;19.64;70.88;99016.56;234040;1198;233591;-59
2021/08/23 10:00:59;;;;;;;7.30;4.40;;;;;;;19.64;70.73;99016.10;234042;1199;138243;-60
2021/08/23 10:06:02;;;;;;;5.50;4.10;;;;;;;19.66;70.68;99015.85;233999;1199;139554;-60
2021/08/23 10:11:09;;;;;;;6.40;4.60;;;;;;;19.68;70.81;99016.01;233876;1199;139048;-60
2021/08/23 10:16:12;;;;;;;5.80;4.60;;;;;;;19.71;70.78;99019.45;234074;1198;138935;-63
2021/08/23 10:21:16;;;;;;;6.90;4.30;;;;;;;19.75;70.70;99017.59;234089;1199;139208;-62
2021/08/23 10:26:20;;;;;;;5.70;4.00;;;;;;;19.81;70.70;99015.92;233891;1200;139544;-62
2021/08/23 10:31:35;;;;;;;7.10;4.80;;;;;;;19.88;70.76;99019.03;234075;1199;139761;-61
2021/08/23 10:36:38;;;;;;;8.00;4.60;;;;;;;19.91;70.67;99020.91;234048;1199;138571;-62
2021/08/23 10:41:41;;;;;;;7.50;4.00;;;;;;;19.91;70.64;99027.42;233983;1199;139163;-63
2021/08/23 10:46:44;;;;;;;5.40;3.90;;;;;;;19.95;70.53;99024.63;234032;1199;140199;-62
2021/08/23 10:51:58;;;;;;;6.80;4.60;;;;;;;19.98;70.39;99023.98;234044;1199;138536;-64
2021/08/23 10:57:01;;;;;;;6.30;4.30;;;;;;;19.96;70.09;99025.62;234044;1199;138775;-62
2021/08/23 11:02:04;;;;;;;7.10;4.30;;;;;;;19.96;70.07;99031.16;234187;1198;140094;-62
2021/08/23 11:07:10;;;;;;;5.20;4.10;;;;;;;19.94;70.00;99028.55;233802;1198;138839;-61
2021/08/23 11:12:18;;;;;;;5.60;3.90;;;;;;;19.87;69.77;99023.64;234051;1199;140036;-62
2021/08/23 11:17:32;;;;;;;6.70;4.30;;;;;;;19.82;69.93;99022.98;234187;1198;139413;-63
2021/08/23 11:22:35;;;;;;;9.00;5.00;;;;;;;19.81;69.95;99017.59;233665;1198;139200;-62
2021/08/23 11:27:39;;;;;;;7.90;4.80;;;;;;;19.79;69.99;99011.81;234050;1198;138424;-60
2021/08/23 11:32:47;;;;;;;6.50;4.40;;;;;;;19.79;70.09;99005.02;234109;1199;139160;-62
2021/08/23 11:38:07;;;;;;;8.20;4.30;;;;;;;19.82;70.05;99003.95;233933;1198;139825;-60
2021/08/23 11:43:11;;;;;;;6.70;4.90;;;;;;;19.84;70.04;98997.59;234063;1199;138850;-61
2021/08/23 11:48:14;;;;;;;9.00;5.00;;;;;;;19.88;69.89;99002.41;233971;1199;138507;-61
2021/08/23 11:53:18;;;;;;;8.50;5.10;;;;;;;19.90;69.96;99001.02;234048;1198;138632;-62
2021/08/23 11:58:21;;;;;;;8.50;4.60;;;;;;;19.89;69.85;99001.77;234048;1199;138191;-61
2021/08/23 12:03:25;;;;;;;6.70;4.30;;;;;;;19.88;69.89;98999.06;234096;1199;139121;-61
2021/08/23 12:08:34;;;;;;;6.50;4.60;;;;;;;19.87;69.73;99000.98;233983;1199;139034;-62
2021/08/23 12:13:38;;;;;;;12.00;5.10;;;;;;;19.89;69.74;99001.27;234025;1197;139207;-61
2021/08/23 12:18:42;;;;;;;6.00;4.40;;;;;;;19.94;69.79;98995.04;234065;1198;139472;-61
2021/08/23 12:23:46;;;;;;;5.80;4.00;;;;;;;20.01;69.91;98994.29;234084;1198;139455;-60
2021/08/23 12:28:52;;;;;;;11.80;5.40;;;;;;;20.09;69.84;98998.34;233312;1198;139189;-61
2021/08/23 12:33:56;;;;;;;6.90;4.70;;;;;;;20.16;69.80;98993.98;234053;1199;139955;-61
2021/08/23 12:38:59;;;;;;;7.30;4.20;;;;;;;20.20;69.78;98989.81;234224;1198;138317;-61
2021/08/23 12:44:04;;;;;;;7.90;4.50;;;;;;;20.26;69.76;98989.04;234066;1198;138489;-61
2021/08/23 12:49:08;;;;;;;6.50;4.70;;;;;;;20.31;69.79;98982.34;234010;1199;140496;-61
2021/08/23 12:54:15;;;;;;;6.70;4.40;;;;;;;20.42;69.62;98974.20;234047;1199;138979;-61
2021/08/23 12:59:21;;;;;;;7.70;4.50;;;;;;;20.48;69.41;98972.64;234091;1200;138947;-61
2021/08/23 13:04:45;;;;;;;5.40;3.90;;;;;;;20.57;69.22;98968.21;233968;1200;138933;-61
2021/08/23 13:09:48;;;;;;;6.30;3.90;;;;;;;20.65;69.10;98968.82;233904;1198;139008;-63
2021/08/23 13:14:51;;;;;;;5.10;3.60;;;;;;;20.74;68.91;98966.35;234102;1200;139093;-62
2021/08/23 13:19:54;;;;;;;5.90;3.70;;;;;;;20.89;68.92;98964.95;234059;1199;138964;-60
2021/08/23 13:24:57;;;;;;;5.20;4.20;;;;;;;21.23;69.49;98956.52;234032;1200;138204;-62
2021/08/23 13:30:00;;;;;;;5.30;3.70;;;;;;;21.66;68.85;98948.55;233984;1199;138412;-61
2021/08/23 13:35:04;;;;;;;5.10;4.20;;;;;;;21.71;68.04;98953.23;233980;1199;139272;-62
2021/08/23 13:40:08;;;;;;;4.50;3.90;;;;;;;21.71;67.48;98950.39;233660;1198;139341;-60
2021/08/23 13:45:10;;;;;;;4.50;4.00;;;;;;;21.73;67.42;98952.66;234205;1198;138396;-62
2021/08/23 13:50:14;;;;;;;7.40;4.20;;;;;;;21.72;67.20;98949.91;234106;1198;138816;-62
2021/08/23 13:55:17;;;;;;;7.40;4.30;;;;;;;21.69;67.02;98941.79;233993;1199;139610;-61
2021/08/23 14:00:20;;;;;;;6.00;4.30;;;;;;;21.68;66.92;98941.15;233979;1197;139074;-61
2021/08/23 14:05:23;;;;;;;8.20;4.30;;;;;;;21.65;66.63;98938.06;233425;1200;139295;-62
2021/08/23 14:10:26;;;;;;;7.20;4.90;;;;;;;21.63;66.46;98939.48;234099;1198;138605;-61
2021/08/23 14:15:29;;;;;;;8.70;5.40;;;;;;;21.61;66.42;98949.11;234294;1199;138531;-61
2021/08/23 14:20:33;;;;;;;6.50;4.60;;;;;;;21.55;66.18;98956.44;234207;1198;138419;-60
2021/08/23 14:25:36;;;;;;;6.50;4.60;;;;;;;21.50;66.12;98949.23;234138;1198;138363;-61
2021/08/23 14:30:39;;;;;;;9.50;4.60;;;;;;;21.45;66.15;98953.88;234112;1198;139279;-60
2021/08/23 14:35:42;;;;;;;6.40;4.40;;;;;;;21.44;66.13;98947.56;233943;1200;139928;-63
2021/08/23 14:40:45;;;;;;;8.00;4.90;;;;;;;21.45;66.15;98949.55;234039;1198;138762;-62
2021/08/23 14:45:48;;;;;;;5.50;4.20;;;;;;;21.44;66.10;98951.85;233921;1199;138462;-62
2021/08/23 14:50:51;;;;;;;7.70;3.80;;;;;;;21.40;65.93;98951.94;234103;1200;138771;-60
2021/08/23 14:55:54;;;;;;;5.40;3.90;;;;;;;21.32;65.62;98945.74;234179;1198;138383;-63
2021/08/23 15:00:58;;;;;;;7.40;3.80;;;;;;;21.24;65.63;98943.95;234087;1198;139643;-61
2021/08/23 15:06:01;;;;;;;6.70;4.40;;;;;;;21.24;65.81;98948.02;234001;1198;139411;-62
2021/08/23 15:11:04;;;;;;;8.60;4.50;;;;;;;21.25;65.80;98948.29;234083;1198;138302;-60
2021/08/23 15:16:07;;;;;;;7.00;4.50;;;;;;;21.27;65.81;98941.80;234126;1198;138347;-60
2021/08/23 15:21:10;;;;;;;5.10;4.10;;;;;;;21.28;65.90;98937.58;234103;1199;138250;-61
2021/08/23 15:26:13;;;;;;;6.60;3.90;;;;;;;21.23;65.98;98931.74;234029;1200;138754;-60
2021/08/23 15:31:16;;;;;;;7.40;3.60;;;;;;;21.21;66.05;98931.98;233968;1199;140120;-60
2021/08/23 15:36:20;;;;;;;6.60;3.90;;;;;;;21.16;66.07;98930.85;234006;1198;138799;-60
2021/08/23 15:41:26;;;;;;;6.40;3.90;;;;;;;21.15;66.27;98931.86;233953;1201;138832;-59
2021/08/23 15:46:30;;;;;;;4.40;3.40;;;;;;;21.15;66.21;98933.38;234126;1198;138566;-62
2021/08/23 15:51:33;;;;;;;4.00;3.10;;;;;;;21.10;66.12;98925.99;234179;1198;139771;-63
2021/08/23 15:56:36;;;;;;;4.30;3.00;;;;;;;21.02;66.05;98926.38;234119;1198;138708;-60
2021/08/23 16:01:39;;;;;;;14.00;10.10;;;;;;;20.99;66.05;98918.15;234157;1198;139361;-61
2021/08/23 16:06:42;;;;;;;6.00;3.40;;;;;;;20.99;66.22;98914.43;234114;1198;139430;-61
2021/08/23 16:11:46;;;;;;;4.70;2.90;;;;;;;20.97;66.05;98917.23;233877;1198;138906;-59
2021/08/23 16:16:49;;;;;;;7.90;3.30;;;;;;;20.93;65.96;98906.98;233977;1199;139413;-60
2021/08/23 16:21:52;;;;;;;4.80;3.20;;;;;;;20.90;65.94;98914.00;234103;1198;140062;-60
2021/08/23 16:26:56;;;;;;;6.40;2.80;;;;;;;20.84;65.67;98919.73;234268;1198;138408;-60
2021/08/23 16:31:59;;;;;;;3.80;2.80;;;;;;;20.80;65.68;98916.16;234079;1198;139392;-61
2021/08/23 16:37:03;;;;;;;5.60;3.10;;;;;;;20.80;65.76;98912.23;234046;1198;139244;-61
2021/08/23 16:42:09;;;;;;;5.40;2.80;;;;;;;20.82;65.77;98919.02;234065;1198;138640;-60
2021/08/23 16:47:12;;;;;;;6.30;4.30;;;;;;;20.82;65.60;98915.81;233924;1200;138632;-60
2021/08/23 16:52:15;;;;;;;4.00;3.10;;;;;;;20.78;65.66;98917.61;234159;1198;138608;-61
2021/08/23 16:57:18;;;;;;;4.10;3.00;;;;;;;20.74;65.60;98927.09;234187;1198;138569;-61
2021/08/23 17:02:23;;;;;;;7.10;3.10;;;;;;;20.69;65.58;98930.48;234113;1198;139150;-61
2021/08/23 17:07:31;;;;;;;5.40;3.30;;;;;;;20.67;65.58;98936.45;234166;1198;138700;-61
2021/08/23 17:12:35;;;;;;;3.60;3.00;;;;;;;20.67;65.69;98940.31;234108;1198;138562;-61
2021/08/23 17:17:38;;;;;;;5.20;3.10;;;;;;;20.69;65.84;98936.64;234125;1198;139114;-60
2021/08/23 17:22:41;;;;;;;9.20;4.60;;;;;;;20.66;65.80;98942.73;234149;1198;138415;-63
2021/08/23 17:27:44;;;;;;;7.00;4.10;;;;;;;20.64;65.88;98942.96;234084;1198;139088;-62
2021/08/23 17:32:50;;;;;;;6.00;3.50;;;;;;;20.66;65.93;98945.79;234212;1198;139007;-61
2021/08/23 17:37:54;;;;;;;5.90;3.50;;;;;;;20.66;66.08;98949.58;234005;1199;138586;-61
2021/08/23 17:42:58;;;;;;;5.20;3.50;;;;;;;20.67;66.06;98948.96;234139;1198;138876;-61
2021/08/23 17:48:01;;;;;;;5.80;3.40;;;;;;;20.63;66.28;98949.48;233423;1198;139078;-63
2021/08/23 17:53:04;;;;;;;7.50;3.40;;;;;;;20.59;66.39;98945.09;234054;1198;139715;-61
2021/08/23 17:58:07;;;;;;;6.70;3.80;;;;;;;20.56;66.48;98947.02;234121;1198;140045;-60
2021/08/23 18:03:10;;;;;;;8.40;3.50;;;;;;;20.52;66.62;98944.66;234052;1199;138802;-60
2021/08/23 18:08:14;;;;;;;5.60;4.20;;;;;;;20.49;66.76;98941.24;234076;1199;139193;-59
2021/08/23 18:13:18;;;;;;;7.80;3.80;;;;;;;20.43;66.81;98930.10;233976;1199;138638;-59
2021/08/23 18:18:22;;;;;;;8.30;4.00;;;;;;;20.38;66.88;98937.86;234074;1199;139585;-58
2021/08/23 18:23:25;;;;;;;11.00;4.10;;;;;;;20.35;67.15;98938.69;234112;1198;139270;-59
2021/08/23 18:28:28;;;;;;;10.70;4.00;;;;;;;20.32;67.24;98944.20;234004;1198;138494;-58
2021/08/23 18:33:31;;;;;;;231.50;190.00;;;;;;;20.29;67.40;98940.80;234162;1199;138911;-59
2021/08/23 18:38:34;;;;;;;11.30;6.10;;;;;;;20.31;67.95;98945.45;233547;1198;140068;-59
2021/08/23 18:43:38;;;;;;;345.60;277.50;;;;;;;20.38;67.87;98945.50;233937;1199;139904;-59
2021/08/23 18:48:41;;;;;;;43.50;32.90;;;;;;;20.37;67.87;98946.11;234020;1198;139870;-61
2021/08/23 18:53:44;;;;;;;6.10;4.60;;;;;;;20.41;68.03;98948.19;234059;1198;140973;-61
2021/08/23 18:58:48;;;;;;;14.20;4.30;;;;;;;20.34;67.72;98948.89;234089;1198;138337;-65
2021/08/23 19:03:51;;;;;;;704.30;593.30;;;;;;;20.22;67.68;98953.17;233755;1198;138352;-65
2021/08/23 19:08:53;;;;;;;571.60;422.80;;;;;;;20.21;68.11;98954.98;234013;1199;140775;-66
2021/08/23 19:13:57;;;;;;;139.20;112.20;;;;;;;20.28;68.48;98953.35;233933;1198;139626;-66
2021/08/23 19:19:02;;;;;;;10.60;7.00;;;;;;;20.34;68.23;98955.55;233691;1198;139159;-67
2021/08/23 19:24:09;;;;;;;8.20;5.40;;;;;;;20.31;68.11;98956.80;233787;1201;138512;-67
2021/08/23 19:29:12;;;;;;;9.70;4.80;;;;;;;20.23;68.07;98956.16;234005;1198;138438;-67
2021/08/23 19:34:16;;;;;;;6.30;4.30;;;;;;;20.13;68.07;98958.48;234173;1198;140622;-67
2021/08/23 19:39:19;;;;;;;11.40;4.70;;;;;;;20.09;68.31;98950.61;234192;1198;139050;-67
2021/08/23 19:44:23;;;;;;;360.40;281.00;;;;;;;20.11;68.76;98949.17;234129;1198;138916;-64
2021/08/23 19:49:26;;;;;;;14.30;7.40;;;;;;;20.26;69.16;98954.82;234064;1199;139748;-67
2021/08/23 19:54:30;;;;;;;7.10;4.60;;;;;;;20.32;68.69;98947.35;234151;1198;139427;-65
2021/08/23 19:59:33;;;;;;;12.80;7.40;;;;;;;20.28;68.57;98942.13;234178;1198;138626;-66
2021/08/23 20:04:37;;;;;;;12.90;7.30;;;;;;;20.29;68.78;98940.02;234157;1198;138410;-64
2021/08/23 20:09:40;;;;;;;11.10;6.20;;;;;;;20.33;68.84;98939.45;233729;1198;139602;-64
2021/08/23 20:14:43;;;;;;;12.60;6.40;;;;;;;20.28;68.72;98936.09;234057;1198;139113;-64
2021/08/23 20:19:46;;;;;;;12.10;5.50;;;;;;;20.20;68.57;98936.17;234070;1199;139009;-64
2021/08/23 20:24:52;;;;;;;10.50;7.00;;;;;;;20.17;68.72;98945.13;234134;1198;139466;-64
2021/08/23 20:29:55;;;;;;;14.20;6.30;;;;;;;20.16;68.89;98942.66;234107;1199;138905;-64
2021/08/23 20:35:00;;;;;;;13.10;6.40;;;;;;;20.13;68.98;98941.59;233984;1199;138898;-62
2021/08/23 20:40:04;;;;;;;;;;;;;;;20.11;69.03;98939.62;234059;1198;139653;-64
2021/08/23 20:45:11;;;;;;;19.10;6.20;;;;;;;20.08;69.23;98933.41;234225;1195;125646;-63
2021/08/23 20:50:17;;;;;;;13.60;7.00;;;;;;;20.12;69.36;98936.11;234181;1198;138725;-61
2021/08/23 20:55:21;;;;;;;15.30;6.30;;;;;;;20.11;69.24;98932.61;234161;1198;138444;-62
2021/08/23 21:00:24;;;;;;;10.10;5.70;;;;;;;20.04;69.30;98919.02;234179;1195;139369;-62
2021/08/23 21:05:27;;;;;;;9.90;5.90;;;;;;;19.98;69.29;98920.38;234111;1198;138978;-62
2021/08/23 21:10:30;;;;;;;15.80;6.60;;;;;;;19.95;69.42;98919.58;233828;1198;140182;-69
2021/08/23 21:15:33;;;;;;;14.80;6.60;;;;;;;19.94;69.52;98913.02;234196;1198;138433;-68
2021/08/23 21:20:37;;;;;;;12.10;6.60;;;;;;;19.93;69.51;98919.08;234188;1198;138665;-67
2021/08/23 21:25:40;;;;;;;8.70;5.30;;;;;;;19.89;69.41;98911.23;234112;1198;138677;-64
2021/08/23 21:30:45;;;;;;;10.90;5.80;;;;;;;19.85;69.36;98909.14;234045;1198;139115;-67
2021/08/23 21:35:48;;;;;;;10.00;5.90;;;;;;;19.79;69.47;98903.58;234023;1198;139346;-66
2021/08/23 21:40:51;;;;;;;11.70;6.60;;;;;;;19.76;69.45;98901.08;234092;1198;138519;-65
2021/08/23 21:45:54;;;;;;;12.60;5.90;;;;;;;19.69;69.47;98902.88;234066;1198;140086;-64
2021/08/23 21:50:57;;;;;;;12.70;5.80;;;;;;;19.65;69.45;98898.09;234187;1199;139312;-68
2021/08/23 21:56:01;;;;;;;12.50;6.50;;;;;;;19.64;69.69;98901.39;234202;1198;138971;-66
2021/08/23 22:01:05;;;;;;;10.10;6.20;;;;;;;19.63;69.56;98911.35;234118;1198;138644;-64
2021/08/23 22:06:11;;;;;;;12.50;6.40;;;;;;;19.62;69.64;98912.88;232329;1199;139574;-62
2021/08/23 22:11:17;;;;;;;9.20;5.60;;;;;;;19.57;69.58;98907.39;232670;1198;139865;-64
2021/08/23 22:16:22;;;;;;;8.70;5.40;;;;;;;19.49;69.68;98907.70;232576;1198;138790;-64
2021/08/23 22:21:25;;;;;;;9.00;6.00;;;;;;;19.46;69.81;98904.61;232929;1198;143959;-65
2021/08/23 22:26:29;;;;;;;12.90;6.70;;;;;;;19.44;70.02;98905.73;233050;1198;138960;-66
2021/08/23 22:31:41;;;;;;;11.50;6.20;;;;;;;19.39;69.98;98908.76;232533;1198;138315;-65
2021/08/23 22:37:05;;;;;;;9.20;6.10;;;;;;;19.39;70.17;98911.11;232027;1200;139882;-67
2021/08/23 22:42:11;;;;;;;20.70;11.20;;;;;;;19.39;70.11;98903.88;232494;1198;139933;-63
2021/08/23 22:47:17;;;;;;;11.60;6.90;;;;;;;19.36;70.12;98900.00;232238;1199;138496;-64
2021/08/23 22:52:20;;;;;;;14.30;6.50;;;;;;;19.32;70.15;98910.17;232369;1199;138851;-64
2021/08/23 22:57:24;;;;;;;10.00;5.80;;;;;;;19.25;69.97;98908.58;232896;1198;139478;-63
2021/08/23 23:02:41;;;;;;;13.00;6.10;;;;;;;19.18;70.26;98914.52;232524;1198;139742;-63
2021/08/23 23:07:49;;;;;;;10.30;7.10;;;;;;;19.14;70.36;98913.88;232211;1199;141342;-64
2021/08/23 23:13:00;;;;;;;14.10;6.60;;;;;;;19.16;70.51;98908.02;232246;1195;139197;-64